Time;durP1;ratioP1;P1;durP2;ratioP2;P2;SDS_P1;SDS_P2;PMS_P1;PMS_P2;Temp;Humidity;BMP_temperature;BMP_pressure;BME280_temperature;BME280_humidity;BME280_pressure;Samples;Min_cycle;Max_cycle;Signal;HPM_P1;HPM_P2
2022/11/07 00:00:11;;;;;;;21.63;6.80;;;;;;;-143.84;81.56;45176.66;4992356;28;20487;-69
2022/11/07 00:02:38;;;;;;;14.03;5.70;;;;;;;-143.84;81.29;45169.03;4991766;28;20819;-69
2022/11/07 00:05:07;;;;;;;17.10;5.70;;;;;;;-143.84;81.82;45201.41;4992074;28;20479;-71
2022/11/07 00:07:34;;;;;;;18.73;5.90;;;;;;;-143.84;81.59;45214.72;4991718;28;20514;-72
2022/11/07 00:10:01;;;;;;;13.93;5.50;;;;;;;-143.84;81.46;45197.59;4992283;28;20445;-72
2022/11/07 00:12:30;;;;;;;16.43;6.33;;;;;;;-143.84;81.38;45178.56;4992329;28;20933;-72
2022/11/07 00:14:57;;;;;;;19.53;6.83;;;;;;;-143.84;81.26;45189.97;4992148;28;20440;-72
2022/11/07 00:17:24;;;;;;;17.83;6.00;;;;;;;-143.84;81.33;45188.06;4992030;28;20448;-72
2022/11/07 00:19:51;;;;;;;15.57;5.90;;;;;;;-143.84;81.02;45199.50;4991980;28;20504;-72
2022/11/07 00:22:18;;;;;;;11.57;5.23;;;;;;;-143.84;81.57;45199.50;4992506;28;20445;-72
2022/11/07 00:24:45;;;;;;;18.50;5.97;;;;;;;-143.84;81.89;45191.88;4991836;28;20554;-72
2022/11/07 00:27:12;;;;;;;15.27;7.03;;;;;;;-143.84;81.81;45203.31;4992093;28;20516;-72
2022/11/07 00:29:41;;;;;;;15.10;5.80;;;;;;;-143.84;81.58;45184.25;4991914;28;21032;-72
2022/11/07 00:32:08;;;;;;;13.93;6.07;;;;;;;-143.84;81.24;45184.25;4991688;28;20868;-72
2022/11/07 00:34:38;;;;;;;16.70;6.50;;;;;;;-143.84;81.21;45189.97;4991692;28;20455;-72
2022/11/07 00:37:05;;;;;;;18.60;6.03;;;;;;;-143.84;81.26;45186.16;4992207;28;20444;-72
2022/11/07 00:39:32;;;;;;;8.03;5.23;;;;;;;-143.84;81.67;45178.56;4991617;28;20491;-72
2022/11/07 00:41:59;;;;;;;8.73;5.20;;;;;;;-143.84;81.61;45195.69;4991245;28;21083;-72
2022/11/07 00:44:26;;;;;;;9.20;5.40;;;;;;;-143.84;81.64;45212.84;4991479;28;20476;-72
2022/11/07 00:46:55;;;;;;;10.07;5.30;;;;;;;-143.84;81.10;45195.69;4991388;28;20951;-72
2022/11/07 00:49:22;;;;;;;8.20;5.23;;;;;;;-143.84;80.92;45207.13;4991491;28;20461;-72
2022/11/07 00:51:49;;;;;;;11.37;5.90;;;;;;;-143.84;80.41;45231.88;4991479;28;20510;-68
2022/11/07 00:54:16;;;;;;;9.90;5.83;;;;;;;-143.84;80.20;45201.41;4991736;28;20448;-68
2022/11/07 00:56:43;;;;;;;15.97;5.50;;;;;;;-143.84;80.13;45197.59;4991724;28;20865;-68
2022/11/07 00:59:11;;;;;;;18.53;7.00;;;;;;;-143.84;80.01;45207.13;4991748;28;20494;-69
2022/11/07 01:01:39;;;;;;;13.63;6.60;;;;;;;-143.84;80.19;45212.84;4992330;28;20460;-70
2022/11/07 01:06:55;;;;;;;15.93;6.00;;;;;;;-143.84;79.88;45174.75;4992118;28;20629;-70
2022/11/07 01:09:23;;;;;;;14.90;5.57;;;;;;;-143.84;79.65;45161.41;4991858;28;20517;-71
2022/11/07 01:11:50;;;;;;;14.47;5.60;;;;;;;-143.84;79.50;45176.66;4991939;28;21139;-70
2022/11/07 01:14:20;;;;;;;17.73;7.50;;;;;;;-143.84;79.64;45197.59;4992226;28;20444;-71
2022/11/07 01:16:47;;;;;;;21.13;6.00;;;;;;;-143.84;80.13;45184.25;4992092;28;20444;-71
2022/11/07 01:19:16;;;;;;;16.27;6.30;;;;;;;-143.84;80.45;45199.50;4992422;28;20444;-71
2022/11/07 01:21:43;;;;;;;17.87;5.40;;;;;;;-143.84;80.92;45172.84;4992379;28;20449;-71
2022/11/07 01:24:13;;;;;;;12.97;5.73;;;;;;;-143.84;80.42;45201.41;4992319;28;20982;-71
2022/11/07 01:26:41;;;;;;;21.13;6.47;;;;;;;-143.84;80.19;45178.56;4992424;28;20882;-71
2022/11/07 01:29:09;;;;;;;13.73;5.90;;;;;;;-143.84;80.32;45191.88;4992190;28;20499;-70
2022/11/07 01:31:37;;;;;;;17.23;5.63;;;;;;;-143.84;79.74;45165.22;4992272;28;20444;-71
2022/11/07 01:34:04;;;;;;;13.80;5.67;;;;;;;-143.84;79.04;45174.75;4990780;28;20456;-72
2022/11/07 01:36:33;;;;;;;18.60;5.57;;;;;;;-143.84;79.05;45189.97;4990073;28;20456;-72
2022/11/07 01:39:00;;;;;;;7.37;5.00;;;;;;;-143.84;79.10;45189.97;4990211;28;20507;-72
2022/11/07 01:41:30;;;;;;;12.57;4.67;;;;;;;-143.84;79.05;45201.41;4990622;28;20462;-72
2022/11/07 01:44:00;;;;;;;6.80;4.40;;;;;;;-143.84;79.31;45199.50;4990559;28;20458;-72
2022/11/07 01:46:31;;;;;;;11.50;5.47;;;;;;;-143.84;79.28;45189.97;4990699;28;20440;-72
2022/11/07 01:49:08;;;;;;;17.23;5.70;;;;;;;-143.84;79.10;45189.97;4990495;28;20437;-72
2022/11/07 01:51:41;;;;;;;11.87;6.17;;;;;;;-143.84;78.90;45182.38;4990353;28;20457;-72
2022/11/07 01:54:09;;;;;;;17.77;6.97;;;;;;;-143.84;78.94;45170.94;4990777;28;20452;-72
2022/11/07 01:56:39;;;;;;;15.20;5.77;;;;;;;-143.84;78.91;45207.13;4990586;28;20443;-72
2022/11/07 01:59:09;;;;;;;14.10;5.83;;;;;;;-143.84;79.16;45195.69;4990126;28;20440;-72
2022/11/07 02:01:36;;;;;;;11.10;5.90;;;;;;;-143.84;79.50;45180.47;4990518;28;20507;-72
2022/11/07 02:04:05;;;;;;;13.57;5.77;;;;;;;-143.84;79.62;45176.66;4990019;28;20514;-72
2022/11/07 02:06:39;;;;;;;9.97;6.07;;;;;;;-143.84;79.37;45176.66;4990391;28;20450;-72
2022/11/07 02:09:06;;;;;;;13.07;5.80;;;;;;;-143.84;79.12;45195.69;4990232;28;20436;-72
2022/11/07 02:11:34;;;;;;;14.63;5.57;;;;;;;-143.84;78.71;45205.22;4990920;28;20802;-70
2022/11/07 02:14:01;;;;;;;11.20;5.20;;;;;;;-143.84;78.92;45205.22;4991998;28;20443;-70
2022/11/07 02:16:28;;;;;;;12.07;5.70;;;;;;;-143.84;78.43;45189.97;4989816;28;20464;-70
2022/11/07 02:18:56;;;;;;;17.00;6.00;;;;;;;-143.84;78.24;45180.47;4990483;28;20440;-70
2022/11/07 02:21:35;;;;;;;15.40;6.60;;;;;;;-143.84;78.20;45163.31;4991153;28;20524;-70
2022/11/07 02:24:25;;;;;;;13.83;6.20;;;;;;;-143.84;78.57;45210.94;4990347;28;20935;-70
2022/11/07 02:26:55;;;;;;;12.03;6.00;;;;;;;-143.84;78.73;45191.88;4990337;28;20452;-70
2022/11/07 02:29:24;;;;;;;17.97;7.37;;;;;;;-143.84;79.31;45210.94;4991357;28;20440;-70
2022/11/07 02:32:01;;;;;;;12.10;5.70;;;;;;;-143.84;79.88;45195.69;4991212;28;20458;-70
2022/11/07 02:34:28;;;;;;;21.20;7.00;;;;;;;-143.84;79.48;45205.22;4991190;28;20535;-70
2022/11/07 02:36:56;;;;;;;12.47;6.20;;;;;;;-143.84;79.37;45205.22;4991628;28;20518;-70
2022/11/07 02:39:25;;;;;;;15.70;6.23;;;;;;;-143.84;79.85;45172.84;4990838;28;20492;-70
2022/11/07 02:41:53;;;;;;;15.10;6.53;;;;;;;-143.84;79.80;45188.06;4990658;28;20471;-70
2022/11/07 02:44:21;;;;;;;16.47;6.20;;;;;;;-143.84;80.02;45210.94;4990886;28;20950;-71
2022/11/07 02:46:48;;;;;;;17.07;6.93;;;;;;;-143.84;80.04;45191.88;4991236;28;20442;-70
2022/11/07 02:49:15;;;;;;;13.53;6.00;;;;;;;-143.84;80.30;45212.84;4990760;28;20967;-71
2022/11/07 02:51:42;;;;;;;17.93;4.83;;;;;;;-143.84;80.11;45209.03;4991012;28;20480;-71
2022/11/07 02:54:09;;;;;;;22.80;5.67;;;;;;;-143.84;80.34;45205.22;4990327;28;20449;-69
2022/11/07 02:56:38;;;;;;;12.47;5.90;;;;;;;-143.84;79.80;45197.59;4989433;28;20987;-69
2022/11/07 02:59:05;;;;;;;10.77;6.10;;;;;;;-143.84;79.56;45191.88;4989419;28;20446;-69
2022/11/07 03:01:32;;;;;;;12.03;6.97;;;;;;;-143.84;79.42;45214.72;4989299;28;20441;-69
2022/11/07 03:04:00;;;;;;;14.03;6.20;;;;;;;-143.84;79.63;45193.78;4989265;28;20534;-69
2022/11/07 03:06:27;;;;;;;11.20;5.53;;;;;;;-143.84;79.66;45193.78;4989152;28;20484;-69
2022/11/07 03:08:54;;;;;;;12.60;5.70;;;;;;;-143.84;79.15;45210.94;4989811;28;20437;-69
2022/11/07 03:11:21;;;;;;;14.83;6.80;;;;;;;-143.84;78.99;45203.31;4989561;28;20452;-69
2022/11/07 03:13:52;;;;;;;16.53;6.97;;;;;;;-143.84;79.09;45201.41;4989232;28;20444;-69
2022/11/07 03:16:20;;;;;;;19.83;5.77;;;;;;;-143.84;79.27;45193.78;4989141;28;20494;-69
2022/11/07 03:18:47;;;;;;;18.80;6.87;;;;;;;-143.84;79.08;45184.25;4989137;28;20850;-69
2022/11/07 03:21:14;;;;;;;6.77;5.20;;;;;;;-143.84;78.96;45195.69;4989009;28;20444;-69
2022/11/07 03:23:41;;;;;;;13.33;6.33;;;;;;;-143.84;78.94;45189.97;4988955;28;20950;-69
2022/11/07 03:26:09;;;;;;;17.30;7.10;;;;;;;-143.84;79.04;45184.25;4988913;28;20905;-69
2022/11/07 03:28:36;;;;;;;12.10;7.00;;;;;;;-143.84;79.17;45203.31;4991320;28;20440;-69
2022/11/07 03:31:05;;;;;;;16.73;6.60;;;;;;;-143.84;79.31;45169.03;4992795;28;20519;-69
2022/11/07 03:33:32;;;;;;;12.97;6.23;;;;;;;-143.84;79.41;45184.25;4992589;28;20459;-69
2022/11/07 03:36:00;;;;;;;14.17;6.83;;;;;;;-143.84;79.45;45167.13;4993002;28;20954;-69
2022/11/07 03:38:27;;;;;;;14.67;6.77;;;;;;;-143.84;79.40;45212.84;4993106;28;21168;-69
2022/11/07 03:40:54;;;;;;;15.93;6.90;;;;;;;-143.84;79.62;45203.31;4992921;28;20480;-69
2022/11/07 03:43:21;;;;;;;12.60;7.00;;;;;;;-143.84;79.42;45174.75;4993278;28;20542;-69
2022/11/07 03:45:48;;;;;;;27.97;6.07;;;;;;;-143.84;79.67;45184.25;4992344;28;21268;-70
2022/11/07 03:48:17;;;;;;;27.03;7.10;;;;;;;-143.84;79.59;45205.22;4992541;28;21318;-69
2022/11/07 03:50:44;;;;;;;8.00;6.03;;;;;;;-143.84;79.73;45197.59;4992568;28;20488;-69
2022/11/07 03:53:11;;;;;;;12.47;6.73;;;;;;;-143.84;79.61;45167.13;4992545;28;20958;-69
2022/11/07 03:55:39;;;;;;;14.60;6.97;;;;;;;-143.84;79.74;45184.25;4992481;28;20954;-69
2022/11/07 03:58:06;;;;;;;13.83;7.43;;;;;;;-143.84;79.14;45174.75;4992612;28;20516;-69
2022/11/07 04:00:33;;;;;;;15.27;6.80;;;;;;;-143.84;79.45;45188.06;4992467;28;20939;-69
2022/11/07 04:03:03;;;;;;;16.90;7.20;;;;;;;-143.84;79.66;45174.75;4992321;28;20456;-69
2022/11/07 04:05:31;;;;;;;15.40;7.30;;;;;;;-143.84;79.66;45188.06;4992191;28;20484;-69
2022/11/07 04:07:58;;;;;;;15.27;7.27;;;;;;;-143.84;79.57;45180.47;4992408;28;20455;-69
2022/11/07 04:10:26;;;;;;;9.10;6.00;;;;;;;-143.84;79.56;45184.25;4992081;28;20458;-69
2022/11/07 04:18:22;;;;;;;11.03;7.17;;;;;;;-143.84;79.18;45193.78;4992317;28;20439;-69
2022/11/07 04:20:51;;;;;;;13.50;7.47;;;;;;;-143.84;79.19;45163.31;4992404;28;20463;-69
2022/11/07 04:23:18;;;;;;;8.13;6.97;;;;;;;-143.84;78.83;45197.59;4991924;28;20865;-69
2022/11/07 04:28:30;;;;;;;15.70;6.47;;;;;;;-143.84;78.81;45203.31;4991875;28;20430;-69
2022/11/07 04:30:57;;;;;;;19.30;7.00;;;;;;;-143.84;78.82;45212.84;4992036;28;20572;-69
2022/11/07 04:33:24;;;;;;;7.63;6.83;;;;;;;-143.84;78.90;45167.13;4991377;28;20451;-69
2022/11/07 04:35:53;;;;;;;12.87;7.43;;;;;;;-143.84;78.78;45189.97;4991439;28;20449;-69
2022/11/07 04:38:20;;;;;;;22.00;7.20;;;;;;;-143.84;78.88;45176.66;4991600;28;20452;-70
2022/11/07 04:40:53;;;;;;;19.83;7.07;;;;;;;-143.84;79.08;45193.78;4992127;28;20915;-70
2022/11/07 04:43:20;;;;;;;11.40;7.80;;;;;;;-143.84;78.96;45174.75;4993586;28;20437;-70
2022/11/07 04:45:47;;;;;;;19.57;8.37;;;;;;;-143.84;79.19;45209.03;4993462;28;20546;-71
2022/11/07 04:48:14;;;;;;;27.73;7.63;;;;;;;-143.84;79.23;45174.75;4993258;28;20449;-71
2022/11/07 04:50:42;;;;;;;14.53;7.50;;;;;;;-143.84;79.08;45199.50;4993154;28;20528;-71
2022/11/07 04:53:13;;;;;;;10.83;6.83;;;;;;;-143.84;79.19;45184.25;4992988;28;20445;-70
2022/11/07 04:55:40;;;;;;;23.10;8.50;;;;;;;-143.84;79.42;45172.84;4992331;28;20510;-71
2022/11/07 04:58:07;;;;;;;15.57;6.83;;;;;;;-143.84;79.23;45203.31;4992896;28;20838;-71
2022/11/07 05:00:34;;;;;;;17.37;7.27;;;;;;;-143.84;79.40;45191.88;4993682;28;20438;-70
2022/11/07 05:03:02;;;;;;;10.63;7.60;;;;;;;-143.84;79.71;45210.94;4993688;28;20453;-70
2022/11/07 05:05:29;;;;;;;20.27;8.47;;;;;;;-143.84;79.84;45195.69;4992960;28;20488;-70
2022/11/07 05:07:56;;;;;;;22.70;8.17;;;;;;;-143.84;80.12;45205.22;4991780;28;20442;-72
2022/11/07 05:10:26;;;;;;;14.93;8.23;;;;;;;-143.84;80.53;45195.69;4992115;28;20983;-70
2022/11/07 05:12:55;;;;;;;14.80;7.87;;;;;;;-143.84;80.67;45199.50;4992648;28;20942;-70
2022/11/07 05:15:22;;;;;;;26.43;7.50;;;;;;;-143.84;80.63;45151.91;4991528;28;20480;-70
2022/11/07 05:17:49;;;;;;;14.10;7.23;;;;;;;-143.84;80.67;45178.56;4978577;28;20849;-71
2022/11/07 05:20:30;;;;;;;16.47;8.10;;;;;;;-143.84;80.79;45201.41;4992283;28;20439;-71
2022/11/07 05:23:13;;;;;;;17.53;8.00;;;;;;;-143.84;80.89;45188.06;5002731;28;20444;-71
2022/11/07 05:25:44;;;;;;;21.73;8.00;;;;;;;-143.84;80.99;45195.69;5001950;28;20479;-71
2022/11/07 05:28:12;;;;;;;17.10;7.20;;;;;;;-143.84;80.93;45180.47;4999587;28;20451;-71
2022/11/07 05:30:40;;;;;;;16.33;8.37;;;;;;;-143.84;81.35;45199.50;5011217;28;20448;-72
2022/11/07 05:33:08;;;;;;;17.97;8.20;;;;;;;-143.84;81.39;45197.59;5011038;28;20526;-72
2022/11/07 05:35:35;;;;;;;14.00;7.07;;;;;;;-143.84;81.40;45197.59;5000563;28;20465;-72
2022/11/07 05:38:03;;;;;;;16.93;8.30;;;;;;;-143.84;81.43;45169.03;4992094;28;20981;-69
2022/11/07 05:40:31;;;;;;;16.20;7.87;;;;;;;-143.84;81.73;45188.06;4990923;28;20491;-70
2022/11/07 05:43:03;;;;;;;28.77;8.20;;;;;;;-143.84;81.94;45161.41;4992465;28;20503;-71
2022/11/07 05:45:31;;;;;;;16.63;7.70;;;;;;;-143.84;82.06;45184.25;4997155;28;20560;-71
2022/11/07 05:47:59;;;;;;;14.40;7.23;;;;;;;-143.84;82.28;45176.66;5011947;28;20444;-71
2022/11/07 05:50:26;;;;;;;14.60;7.63;;;;;;;-143.84;82.64;45148.09;5011082;28;20514;-71
2022/11/07 05:52:54;;;;;;;12.57;7.47;;;;;;;-143.84;82.72;45203.31;5011478;28;20439;-71
2022/11/07 05:55:22;;;;;;;15.17;7.33;;;;;;;-143.84;82.88;45174.75;5011280;28;20456;-71
2022/11/07 05:57:50;;;;;;;18.90;8.13;;;;;;;-143.84;83.39;45186.16;5011803;28;20478;-71
2022/11/07 06:00:19;;;;;;;9.40;6.77;;;;;;;-143.84;83.74;45195.69;5011890;28;20447;-71
2022/11/07 06:02:54;;;;;;;13.77;7.57;;;;;;;-143.84;84.01;45203.31;5012078;28;20923;-71
2022/11/07 06:05:21;;;;;;;17.10;8.53;;;;;;;-143.84;84.37;45205.22;5012049;28;20884;-71
2022/11/07 06:07:48;;;;;;;14.27;7.83;;;;;;;-143.84;84.60;45195.69;5011717;28;20520;-71
2022/11/07 06:10:15;;;;;;;15.40;6.87;;;;;;;-143.84;84.81;45165.22;5011804;28;20934;-71
2022/11/07 06:12:42;;;;;;;19.80;8.23;;;;;;;-143.84;84.90;45195.69;5011667;28;20424;-71
2022/11/07 06:15:10;;;;;;;20.13;8.57;;;;;;;-143.84;85.40;45178.56;5011513;28;20510;-71
2022/11/07 06:17:39;;;;;;;15.73;7.60;;;;;;;-143.84;85.85;45170.94;5011549;28;20458;-71
2022/11/07 06:20:07;;;;;;;17.53;8.07;;;;;;;-143.84;86.18;45216.63;5011387;28;21212;-71
2022/11/07 06:22:34;;;;;;;14.30;9.13;;;;;;;-143.84;86.57;45184.25;5011259;28;20462;-71
2022/11/07 06:25:02;;;;;;;16.83;7.90;;;;;;;-143.84;86.90;45193.78;5011446;28;20474;-71
2022/11/07 06:27:30;;;;;;;16.07;7.50;;;;;;;-143.84;87.07;45191.88;5010763;28;20522;-71
2022/11/07 06:29:58;;;;;;;13.27;7.93;;;;;;;-143.84;87.28;45193.78;5011195;28;21389;-71
2022/11/07 06:32:25;;;;;;;14.20;8.57;;;;;;;-143.84;87.31;45201.41;5011624;28;20451;-71
2022/11/07 06:34:53;;;;;;;16.60;7.80;;;;;;;-143.84;87.24;45189.97;5010163;28;20952;-71
2022/11/07 06:37:21;;;;;;;11.77;7.93;;;;;;;-143.84;86.94;45212.84;4991546;28;20437;-71
2022/11/07 06:39:48;;;;;;;11.97;6.93;;;;;;;-143.84;87.08;45186.16;4991472;28;20551;-71
2022/11/07 06:42:15;;;;;;;11.90;7.33;;;;;;;-143.84;86.70;45184.25;4991754;28;20446;-71
2022/11/07 06:44:42;;;;;;;10.57;7.30;;;;;;;-143.84;86.69;45216.63;4991327;28;20455;-71
2022/11/07 06:47:09;;;;;;;15.13;7.50;;;;;;;-143.84;86.37;45207.13;4990508;28;20492;-67
2022/11/07 06:49:36;;;;;;;15.73;6.90;;;;;;;-143.84;86.16;45176.66;4988544;28;20454;-67
2022/11/07 06:52:05;;;;;;;9.60;6.43;;;;;;;-143.84;85.48;45201.41;4989316;28;20440;-67
2022/11/07 06:54:32;;;;;;;11.40;7.53;;;;;;;-143.84;85.38;45155.69;4988982;28;20452;-67
2022/11/07 06:56:59;;;;;;;14.63;7.47;;;;;;;-143.84;85.24;45193.78;4989091;28;21023;-67
2022/11/07 06:59:26;;;;;;;17.00;6.97;;;;;;;-143.84;84.98;45199.50;4988979;28;20456;-67
2022/11/07 07:01:54;;;;;;;17.40;7.50;;;;;;;-143.84;84.32;45205.22;4989881;28;20449;-67
2022/11/07 07:04:21;;;;;;;14.90;7.03;;;;;;;-143.84;83.92;45186.16;4995718;28;20522;-67
2022/11/07 07:06:48;;;;;;;12.10;6.07;;;;;;;-143.84;83.73;45186.16;4995961;28;20514;-67
2022/11/07 07:09:17;;;;;;;11.37;6.73;;;;;;;-143.84;83.01;45191.88;4996275;28;20449;-67
2022/11/07 07:11:44;;;;;;;13.53;6.40;;;;;;;-143.84;82.61;45199.50;4996110;28;20452;-67
2022/11/07 07:14:11;;;;;;;14.20;6.50;;;;;;;-143.84;81.38;45193.78;4996005;28;20476;-68
2022/11/07 07:16:39;;;;;;;19.50;7.67;;;;;;;-143.84;81.21;45207.13;4995931;28;20448;-67
2022/11/07 07:19:06;;;;;;;12.17;5.70;;;;;;;-143.84;80.30;45178.56;4995922;28;20451;-68
2022/11/07 07:21:34;;;;;;;16.53;5.40;;;;;;;-143.84;79.92;45182.38;4995915;28;20450;-68
2022/11/07 07:24:01;;;;;;;10.63;5.73;;;;;;;-143.84;79.55;45165.22;4995765;28;20447;-68
2022/11/07 07:26:29;;;;;;;14.27;5.90;;;;;;;-143.84;79.14;45176.66;4995874;28;21291;-67
2022/11/07 07:28:56;;;;;;;11.53;5.43;;;;;;;-143.84;78.63;45178.56;4995696;28;20449;-68
2022/11/07 07:31:29;;;;;;;13.40;5.80;;;;;;;-143.84;78.40;45165.22;4996238;28;20448;-68
2022/11/07 07:33:57;;;;;;;14.87;5.83;;;;;;;-143.84;78.06;45174.75;4995697;28;20974;-68
2022/11/07 07:36:24;;;;;;;11.60;6.20;;;;;;;-143.84;77.43;45180.47;4995823;28;20443;-68
2022/11/07 07:38:52;;;;;;;9.20;6.43;;;;;;;-143.84;77.06;45178.56;4995345;28;20449;-67
2022/11/07 07:41:19;;;;;;;14.57;6.10;;;;;;;-143.84;76.52;45178.56;4995706;28;20501;-67
2022/11/07 07:43:48;;;;;;;22.93;6.53;;;;;;;-143.84;75.67;45193.78;4995584;28;20947;-67
2022/11/07 07:46:19;;;;;;;8.33;5.80;;;;;;;-143.84;75.57;45178.56;4996111;28;20977;-67
2022/11/07 07:48:46;;;;;;;16.07;6.47;;;;;;;-143.84;75.13;45180.47;4994986;28;20452;-67
2022/11/07 07:51:13;;;;;;;20.13;8.17;;;;;;;-143.84;75.44;45188.06;4995694;28;20449;-67
2022/11/07 07:53:41;;;;;;;17.83;8.60;;;;;;;-143.84;74.55;45184.25;4996450;28;20829;-67
2022/11/07 07:56:11;;;;;;;13.20;7.53;;;;;;;-143.84;72.05;45178.56;4991553;28;20456;-67
2022/11/07 07:58:38;;;;;;;14.07;5.70;;;;;;;-143.84;71.14;45191.88;4995180;28;20439;-67
2022/11/07 08:01:09;;;;;;;13.63;5.83;;;;;;;-143.84;71.71;45189.97;4994790;28;20448;-67
2022/11/07 08:03:36;;;;;;;13.63;6.00;;;;;;;-143.84;71.03;45199.50;4995441;28;20477;-67
2022/11/07 08:06:04;;;;;;;11.67;6.70;;;;;;;-143.84;69.60;45169.03;4994584;28;20581;-67
2022/11/07 08:08:32;;;;;;;13.10;6.10;;;;;;;-143.84;69.57;45163.31;4994183;28;20522;-67
2022/11/07 08:11:02;;;;;;;13.40;5.90;;;;;;;-143.84;69.03;45150.00;4994020;28;20466;-67
2022/11/07 08:13:29;;;;;;;10.40;5.83;;;;;;;-143.84;68.61;45180.47;4995099;28;20476;-67
2022/11/07 08:15:57;;;;;;;13.33;5.57;;;;;;;-143.84;68.75;45169.03;4990636;28;20962;-67
2022/11/07 08:18:25;;;;;;;12.10;5.50;;;;;;;-143.84;68.80;45178.56;4991105;28;20989;-67
2022/11/07 08:20:55;;;;;;;14.90;5.77;;;;;;;-143.84;68.66;45155.69;4990743;28;20471;-67
2022/11/07 08:23:23;;;;;;;16.33;5.57;;;;;;;-143.84;68.06;45169.03;4992620;28;21044;-67
2022/11/07 08:25:51;;;;;;;10.00;5.43;;;;;;;-143.84;67.12;45174.75;4991085;28;20477;-67
2022/11/07 08:28:20;;;;;;;13.00;5.90;;;;;;;-143.84;68.15;45155.69;4990761;28;20548;-67
2022/11/07 08:30:55;;;;;;;10.50;4.67;;;;;;;-143.84;67.63;45153.81;4991088;28;20836;-67
2022/11/07 08:33:22;;;;;;;10.47;5.63;;;;;;;-143.84;67.11;45150.00;4992224;28;20545;-67
2022/11/07 08:35:51;;;;;;;14.20;5.83;;;;;;;-143.84;66.38;45144.28;4989882;28;20845;-73
2022/11/07 08:38:18;;;;;;;12.80;6.17;;;;;;;-143.84;66.16;45163.31;4988769;28;20456;-73
2022/11/07 08:40:45;;;;;;;10.57;5.00;;;;;;;-143.84;65.52;45157.59;4991179;28;20578;-72
2022/11/07 08:43:15;;;;;;;7.80;4.03;;;;;;;-143.84;63.46;45186.16;4993569;28;20461;-73
2022/11/07 08:45:43;;;;;;;20.27;5.37;;;;;;;-143.84;63.77;45178.56;4990543;28;20462;-73
2022/11/07 08:48:10;;;;;;;9.60;4.70;;;;;;;-143.84;64.88;45172.84;4990044;28;20477;-73
2022/11/07 08:50:37;;;;;;;6.23;3.97;;;;;;;-143.84;63.46;45165.22;4990359;28;20455;-73
2022/11/07 08:53:06;;;;;;;11.73;4.60;;;;;;;-143.84;63.23;45161.41;4991281;28;20510;-72
2022/11/07 08:55:34;;;;;;;8.60;3.93;;;;;;;-143.84;63.09;45169.03;4991885;28;20464;-72
2022/11/07 08:58:02;;;;;;;8.57;4.13;;;;;;;-143.84;61.78;45169.03;4991374;28;20456;-73
2022/11/07 09:00:29;;;;;;;13.20;5.00;;;;;;;-143.84;62.59;45161.41;4990697;28;20463;-73
2022/11/07 09:02:57;;;;;;;19.97;4.47;;;;;;;-143.84;62.94;45146.19;4997547;28;20840;-73
2022/11/07 09:05:24;;;;;;;7.53;4.60;;;;;;;-143.84;61.54;45153.81;4989590;28;20455;-73
2022/11/07 09:07:51;;;;;;;5.07;3.90;;;;;;;-143.84;61.90;45138.56;4989886;28;20488;-73
2022/11/07 09:10:20;;;;;;;8.50;4.87;;;;;;;-143.84;59.32;45140.47;4989542;28;20453;-73
2022/11/07 09:12:48;;;;;;;7.00;4.53;;;;;;;-143.84;59.05;45146.19;4990585;28;20464;-73
2022/11/07 09:15:19;;;;;;;6.17;4.43;;;;;;;-143.84;58.02;45130.94;4990281;28;20459;-73
2022/11/07 09:17:47;;;;;;;6.07;5.03;;;;;;;-143.84;56.63;45144.28;4990359;28;20992;-73
2022/11/07 09:20:14;;;;;;;7.17;4.23;;;;;;;-143.84;57.60;45150.00;4989834;28;20463;-73
2022/11/07 09:22:42;;;;;;;22.70;4.37;;;;;;;-143.84;54.91;45134.75;4992942;28;20456;-73
2022/11/07 09:25:10;;;;;;;4.60;4.13;;;;;;;-143.84;54.56;45136.66;4998086;28;20985;-73
2022/11/07 09:27:38;;;;;;;17.07;4.50;;;;;;;-143.84;54.03;45123.34;4997652;28;20479;-73
2022/11/07 09:30:07;;;;;;;9.50;3.87;;;;;;;-143.84;54.24;45132.84;5003140;28;20450;-73
2022/11/07 09:32:34;;;;;;;6.60;4.33;;;;;;;-143.84;53.20;45153.81;4993024;28;20468;-72
2022/11/07 09:35:01;;;;;;;4.67;3.50;;;;;;;-143.84;52.26;45148.09;4990221;28;21454;-73
2022/11/07 09:37:28;;;;;;;10.20;3.90;;;;;;;-143.84;51.39;45132.84;4991970;28;20475;-73
2022/11/07 09:39:55;;;;;;;9.63;3.80;;;;;;;-143.84;51.88;45136.66;4989541;28;21236;-73
2022/11/07 09:42:36;;;;;;;9.87;3.73;;;;;;;-143.84;52.42;45125.22;4991736;28;20494;-72
2022/11/07 09:45:09;;;;;;;10.03;4.00;;;;;;;-143.84;51.37;45127.13;4991215;28;20439;-73
2022/11/07 09:47:38;;;;;;;7.60;3.80;;;;;;;-143.84;51.24;45150.00;4988961;28;21248;-73
2022/11/07 09:50:12;;;;;;;4.83;3.33;;;;;;;-143.84;50.75;45163.31;4987683;28;20460;-73
2022/11/07 09:52:45;;;;;;;5.73;3.83;;;;;;;-143.84;51.08;45134.75;4990654;28;20460;-73
2022/11/07 09:55:17;;;;;;;12.03;4.43;;;;;;;-143.84;51.43;45134.75;4989773;28;20938;-73
2022/11/07 09:57:46;;;;;;;9.27;3.93;;;;;;;-143.84;50.92;45146.19;4990111;28;20459;-73
2022/11/07 10:00:18;;;;;;;7.50;4.57;;;;;;;-143.84;51.33;45140.47;4990236;28;20460;-73
2022/11/07 10:02:47;;;;;;;9.70;4.33;;;;;;;-143.84;51.03;45146.19;4991492;28;20456;-72
2022/11/07 10:05:16;;;;;;;3.83;3.50;;;;;;;-143.84;50.25;45136.66;4989066;28;20511;-73
2022/11/07 10:07:57;;;;;;;11.80;4.20;;;;;;;-143.84;49.56;45132.84;4989160;28;20578;-73
2022/11/07 10:10:36;;;;;;;6.90;3.90;;;;;;;-143.84;47.71;45121.44;4988245;28;20452;-72
2022/11/07 10:13:36;;;;;;;5.20;3.27;;;;;;;-143.84;46.64;45132.84;4989937;28;20919;-73
2022/11/07 10:16:10;;;;;;;6.17;3.77;;;;;;;-143.84;45.43;45134.75;4990226;28;20448;-73
2022/11/07 10:18:58;;;;;;;12.00;3.47;;;;;;;-143.84;44.54;45129.03;4989681;28;20455;-73
2022/11/07 10:21:30;;;;;;;9.13;3.20;;;;;;;-143.84;45.38;45121.44;4990267;28;20432;-72
2022/11/07 10:24:21;;;;;;;5.63;3.60;;;;;;;-143.84;43.64;45094.78;4989816;28;20521;-73
2022/11/07 10:26:48;;;;;;;7.03;3.30;;;;;;;-143.84;43.85;45119.53;4990012;28;20499;-73
2022/11/07 10:29:17;;;;;;;4.57;3.40;;;;;;;-143.84;44.51;45134.75;4989966;28;20452;-73
2022/11/07 10:31:52;;;;;;;11.83;3.53;;;;;;;-143.84;44.14;45132.84;4988838;28;20467;-72
2022/11/07 10:34:24;;;;;;;4.27;3.87;;;;;;;-143.84;45.03;45104.28;4988350;28;20452;-73
2022/11/07 10:36:51;;;;;;;3.60;3.30;;;;;;;-143.84;44.01;45115.72;4988807;28;20958;-73
2022/11/07 10:39:19;;;;;;;9.90;3.70;;;;;;;-143.84;44.85;45125.22;4988910;28;20496;-72
2022/11/07 10:41:59;;;;;;;6.60;3.40;;;;;;;-143.84;43.42;45108.09;4991350;28;20452;-73
2022/11/07 10:44:29;;;;;;;3.50;3.07;;;;;;;-143.84;44.57;45125.22;4989634;28;20497;-73
2022/11/07 10:46:57;;;;;;;19.30;4.47;;;;;;;-143.84;43.99;45111.91;4989633;28;20488;-73
2022/11/07 10:49:26;;;;;;;11.40;4.27;;;;;;;-143.84;44.18;45136.66;4989905;28;20448;-68
2022/11/07 10:52:05;;;;;;;22.23;4.43;;;;;;;-143.84;45.83;45123.34;4989368;28;20460;-68
2022/11/07 10:54:32;;;;;;;10.23;4.00;;;;;;;-143.84;44.72;45121.44;4989416;28;20510;-68
2022/11/07 10:57:03;;;;;;;9.87;3.47;;;;;;;-143.84;43.36;45140.47;4989257;28;20450;-68
2022/11/07 10:59:33;;;;;;;7.73;4.10;;;;;;;-143.84;44.16;45132.84;4989280;28;20444;-68
2022/11/07 11:02:03;;;;;;;9.23;3.80;;;;;;;-143.84;43.60;45098.56;4989331;28;20505;-68
2022/11/07 11:04:32;;;;;;;11.47;3.63;;;;;;;-143.84;44.64;45123.34;4989629;28;20455;-68
2022/11/07 11:07:02;;;;;;;9.63;3.40;;;;;;;-143.84;44.87;45129.03;4989466;28;20587;-68
2022/11/07 11:09:33;;;;;;;6.60;3.83;;;;;;;-143.84;43.27;45096.66;4993192;28;20542;-68
2022/11/07 11:12:05;;;;;;;6.60;3.40;;;;;;;-143.84;44.54;45123.34;5008748;28;20451;-68
2022/11/07 11:14:32;;;;;;;6.23;3.17;;;;;;;-143.84;42.94;45106.19;5009036;28;20447;-68
2022/11/07 11:16:59;;;;;;;11.73;3.50;;;;;;;-143.84;42.57;45106.19;5009170;28;20439;-68
2022/11/07 11:19:48;;;;;;;5.47;3.20;;;;;;;-143.84;43.88;45102.38;5008778;28;20466;-68
2022/11/07 11:22:18;;;;;;;6.57;3.57;;;;;;;-143.84;44.08;45138.56;5009262;28;20459;-73
2022/11/07 11:24:45;;;;;;;6.90;3.30;;;;;;;-143.84;44.90;45129.03;5007994;28;20439;-73
2022/11/07 11:27:16;;;;;;;13.63;3.70;;;;;;;-143.84;44.67;45115.72;5007954;28;21012;-73
2022/11/07 11:29:51;;;;;;;10.73;3.57;;;;;;;-143.84;42.88;45121.44;5008436;28;20450;-73